createdAt,value
2022-10-04T00:01:51.592Z,12.40
2022-10-04T00:04:24.664Z,13.70
2022-10-04T00:09:25.823Z,19.80
2022-10-04T00:11:57.210Z,12.90
2022-10-04T00:14:30.871Z,16.20
2022-10-04T00:17:01.736Z,19.30
2022-10-04T00:19:47.365Z,15.60
2022-10-04T00:22:18.883Z,16.90
2022-10-04T00:25:18.697Z,16.80
2022-10-04T00:28:21.403Z,14.30
2022-10-04T00:31:05.661Z,16.70
2022-10-04T00:33:37.627Z,18.30
2022-10-04T00:36:33.675Z,14.70
2022-10-04T00:39:20.223Z,20.70
2022-10-04T00:41:57.225Z,13.80
2022-10-04T00:44:30.261Z,17.20
2022-10-04T00:49:31.127Z,15.00
2022-10-04T00:52:04.246Z,17.90
2022-10-04T00:54:36.580Z,15.20
2022-10-04T00:57:09.033Z,15.50
2022-10-04T00:59:40.496Z,18.20
2022-10-04T01:02:16.776Z,15.50
2022-10-04T01:04:49.530Z,17.70
2022-10-04T01:07:24.008Z,18.80
2022-10-04T01:09:56.118Z,12.10
2022-10-04T01:12:40.849Z,21.70
2022-10-04T01:15:14.987Z,18.40
2022-10-04T01:18:09.315Z,13.80
2022-10-04T01:20:41.134Z,13.40
2022-10-04T01:23:12.174Z,13.20
2022-10-04T01:25:46.694Z,14.50
2022-10-04T01:28:17.808Z,12.40
2022-10-04T01:30:48.676Z,14.20
2022-10-04T01:33:19.361Z,16.60
2022-10-04T01:35:49.588Z,11.00
2022-10-04T01:38:20.164Z,15.70
2022-10-04T01:40:52.746Z,12.70
2022-10-04T01:43:25.150Z,10.40
2022-10-04T01:45:58.475Z,11.30
2022-10-04T01:48:32.515Z,13.70
2022-10-04T01:51:05.519Z,16.40
2022-10-04T01:53:38.894Z,14.50
2022-10-04T01:56:12.239Z,14.80
2022-10-04T01:58:43.973Z,42.10
2022-10-04T02:01:16.250Z,12.90
2022-10-04T02:03:52.592Z,14.20
2022-10-04T02:06:24.418Z,12.00
2022-10-04T02:08:57.789Z,13.60
2022-10-04T02:11:30.525Z,14.50
2022-10-04T02:14:01.740Z,12.70
2022-10-04T02:16:33.390Z,18.50
2022-10-04T02:19:04.347Z,16.00
2022-10-04T02:21:36.621Z,16.00
2022-10-04T02:24:08.718Z,11.00
2022-10-04T02:26:39.527Z,16.30
2022-10-04T02:29:10.450Z,17.50
2022-10-04T02:32:01.697Z,12.00
2022-10-04T02:34:32.300Z,14.60
2022-10-04T02:37:04.876Z,14.00
2022-10-04T02:39:38.488Z,12.50
2022-10-04T02:42:14.358Z,13.00
2022-10-04T02:44:47.514Z,13.10
2022-10-04T02:47:20.713Z,12.90
2022-10-04T02:49:52.976Z,12.80
2022-10-04T02:52:25.023Z,14.00
2022-10-04T02:55:01.645Z,8.50
2022-10-04T02:57:34.090Z,7.80
2022-10-04T03:00:15.057Z,11.00
2022-10-04T03:03:05.771Z,9.90
2022-10-04T03:05:36.592Z,10.60
2022-10-04T03:08:07.672Z,9.90
2022-10-04T03:10:38.161Z,11.70
2022-10-04T03:13:09.556Z,9.30
2022-10-04T03:15:40.408Z,14.00
2022-10-04T03:18:11.538Z,9.80
2022-10-04T03:20:42.668Z,12.00
2022-10-04T03:23:14.762Z,13.00
2022-10-04T03:25:48.808Z,10.20
2022-10-04T03:28:20.005Z,10.30
2022-10-04T03:30:51.214Z,10.80
2022-10-04T03:33:23.668Z,10.10
2022-10-04T03:35:56.042Z,10.10
2022-10-04T03:38:27.544Z,11.10
2022-10-04T03:40:59.389Z,9.90
2022-10-04T03:43:32.134Z,12.40
2022-10-04T03:46:03.747Z,9.50
2022-10-04T03:48:36.776Z,12.80
2022-10-04T03:51:08.861Z,13.90
2022-10-04T03:53:43.506Z,11.80
2022-10-04T03:56:17.165Z,14.90
2022-10-04T03:58:48.566Z,12.60
2022-10-04T04:01:36.303Z,10.50
2022-10-04T04:04:13.070Z,12.90
2022-10-04T04:06:47.443Z,14.40
2022-10-04T04:09:23.083Z,13.20
2022-10-04T04:11:55.601Z,10.90
2022-10-04T04:14:27.426Z,9.90
2022-10-04T04:17:17.784Z,11.40
2022-10-04T04:19:48.753Z,14.30
2022-10-04T04:22:19.378Z,12.60
2022-10-04T04:24:50.936Z,14.20
2022-10-04T04:27:24.842Z,10.00
2022-10-04T04:30:00.830Z,19.50
2022-10-04T04:32:34.299Z,11.30
2022-10-04T04:35:08.866Z,14.10
2022-10-04T04:37:39.985Z,12.00
2022-10-04T04:40:19.808Z,10.80
2022-10-04T04:42:50.951Z,10.70
2022-10-04T04:45:23.406Z,10.80
2022-10-04T04:47:56.455Z,9.80
2022-10-04T04:50:28.118Z,13.40
2022-10-04T04:53:01.860Z,8.30
2022-10-04T04:55:56.481Z,11.70
2022-10-04T04:58:27.244Z,9.70
2022-10-04T05:01:00.372Z,10.90
2022-10-04T05:03:31.554Z,9.40
2022-10-04T05:06:05.367Z,11.80
2022-10-04T05:08:41.280Z,10.30
2022-10-04T05:11:16.257Z,11.90
2022-10-04T05:13:48.177Z,9.20
2022-10-04T05:16:21.338Z,12.80
2022-10-04T05:18:55.942Z,12.40
2022-10-04T05:21:28.954Z,13.90
2022-10-04T05:24:00.782Z,14.40
2022-10-04T05:26:32.294Z,11.70
2022-10-04T05:29:04.217Z,12.60
2022-10-04T05:31:37.867Z,12.10
2022-10-04T05:34:19.205Z,9.80
2022-10-04T05:36:53.501Z,11.70
2022-10-04T05:39:26.543Z,12.00
2022-10-04T05:42:01.982Z,12.20
2022-10-04T05:44:36.554Z,14.80
2022-10-04T05:47:08.975Z,11.00
2022-10-04T05:49:45.267Z,12.50
2022-10-04T05:52:18.373Z,11.70
2022-10-04T05:54:48.760Z,14.00
2022-10-04T05:57:27.619Z,17.50
2022-10-04T06:00:10.871Z,10.20
2022-10-04T06:02:52.205Z,11.80
2022-10-04T06:05:28.888Z,9.30
2022-10-04T06:08:02.926Z,13.30
2022-10-04T06:13:05.591Z,10.80
2022-10-04T06:15:45.175Z,8.30
2022-10-04T06:18:32.734Z,8.10
2022-10-04T06:21:22.945Z,13.80
2022-10-04T06:23:58.389Z,11.60
2022-10-04T06:26:31.229Z,8.10
2022-10-04T06:29:04.129Z,9.40
2022-10-04T06:31:57.045Z,9.30
2022-10-04T06:34:36.953Z,9.00
2022-10-04T06:37:25.175Z,11.40
2022-10-04T06:40:03.583Z,8.20
2022-10-04T06:42:43.416Z,10.60
2022-10-04T06:45:29.814Z,17.50
2022-10-04T06:48:07.436Z,14.90
2022-10-04T06:50:41.744Z,9.00
2022-10-04T06:53:19.030Z,11.30
2022-10-04T06:56:07.692Z,8.40
2022-10-04T06:58:53.433Z,12.90
2022-10-04T07:01:29.212Z,15.70
2022-10-04T07:04:02.932Z,11.40
2022-10-04T07:06:37.659Z,8.10
2022-10-04T07:09:09.110Z,16.20
2022-10-04T07:11:46.199Z,10.60
2022-10-04T07:14:18.958Z,10.80
2022-10-04T07:16:51.755Z,13.10
2022-10-04T07:19:29.242Z,9.70
2022-10-04T07:22:05.671Z,9.70
2022-10-04T07:24:47.418Z,14.10
2022-10-04T07:27:20.089Z,9.30
2022-10-04T07:29:55.753Z,11.00
2022-10-04T07:32:29.018Z,13.70
2022-10-04T07:35:03.338Z,10.40
2022-10-04T07:37:37.776Z,13.00
2022-10-04T07:40:11.224Z,10.30
2022-10-04T07:42:48.739Z,14.50
2022-10-04T07:45:24.137Z,10.90
2022-10-04T07:48:05.674Z,10.00
2022-10-04T07:50:39.173Z,12.60
2022-10-04T07:53:11.131Z,10.50
2022-10-04T07:55:46.906Z,11.30
2022-10-04T07:58:22.475Z,10.90
2022-10-04T08:00:56.131Z,9.20
2022-10-04T08:03:36.988Z,10.10
2022-10-04T08:06:14.393Z,12.90
2022-10-04T08:08:52.601Z,11.40
2022-10-04T08:11:28.403Z,9.10
2022-10-04T08:14:03.072Z,11.40
2022-10-04T08:16:38.087Z,10.90
2022-10-04T08:19:17.693Z,12.70
2022-10-04T08:21:53.821Z,10.50
2022-10-04T08:24:28.747Z,12.00
2022-10-04T08:27:04.464Z,12.40
2022-10-04T08:29:48.860Z,12.00
2022-10-04T08:32:38.827Z,10.90
2022-10-04T08:35:28.010Z,8.20
2022-10-04T08:38:08.151Z,9.80
2022-10-04T08:40:51.523Z,7.20
2022-10-04T08:46:19.671Z,10.50
2022-10-04T08:49:12.502Z,12.70
2022-10-04T08:52:03.328Z,10.60
2022-10-04T08:55:01.698Z,13.40
2022-10-04T08:57:55.785Z,8.20
2022-10-04T09:00:29.166Z,9.00
2022-10-04T09:03:26.715Z,12.30
2022-10-04T09:06:00.044Z,10.30
2022-10-04T09:09:02.929Z,9.50
2022-10-04T09:11:57.208Z,12.20
2022-10-04T09:14:46.069Z,12.70
2022-10-04T09:17:24.245Z,10.90
2022-10-04T09:20:09.105Z,13.10
2022-10-04T09:22:50.334Z,9.20
2022-10-04T09:25:49.104Z,9.70
2022-10-04T09:28:24.738Z,11.00
2022-10-04T09:31:03.163Z,11.50
2022-10-04T09:33:47.622Z,16.70
2022-10-04T09:36:28.802Z,9.70
2022-10-04T09:39:29.064Z,7.30
2022-10-04T09:42:13.195Z,12.00
2022-10-04T09:44:54.776Z,9.00
2022-10-04T09:47:38.111Z,7.30
2022-10-04T09:50:32.166Z,13.00
2022-10-04T09:53:07.069Z,11.90
2022-10-04T09:55:44.501Z,8.30
2022-10-04T09:58:29.752Z,11.10
2022-10-04T10:01:07.722Z,8.30
2022-10-04T10:04:06.093Z,11.60
2022-10-04T10:06:50.268Z,11.70
2022-10-04T10:09:49.977Z,11.80
2022-10-04T10:12:41.525Z,10.30
2022-10-04T10:15:17.373Z,7.10
2022-10-04T10:17:51.607Z,9.40
2022-10-04T10:20:42.132Z,11.00
2022-10-04T10:23:23.675Z,8.20
2022-10-04T10:26:17.020Z,10.60
2022-10-04T10:29:04.297Z,8.40
2022-10-04T10:31:47.945Z,10.60
2022-10-04T10:34:29.006Z,15.90
2022-10-04T10:37:16.398Z,9.30
2022-10-04T10:40:03.414Z,12.00
2022-10-04T10:42:47.397Z,10.30
2022-10-04T10:45:27.913Z,9.10
2022-10-04T10:48:02.129Z,8.30
2022-10-04T10:51:00.048Z,9.30
2022-10-04T10:53:59.339Z,7.00
2022-10-04T10:56:47.048Z,12.30
2022-10-04T10:59:48.108Z,6.90
2022-10-04T11:02:48.625Z,6.50
2022-10-04T11:05:49.039Z,8.00
2022-10-04T11:08:30.681Z,10.20
2022-10-04T11:11:05.874Z,7.30
2022-10-04T11:13:50.387Z,8.30
2022-10-04T11:16:31.598Z,4.80
2022-10-04T11:19:16.151Z,8.20
2022-10-04T11:22:07.366Z,7.40
2022-10-04T11:24:50.692Z,6.20
2022-10-04T11:30:04.437Z,4.90
2022-10-04T11:32:52.275Z,7.50
2022-10-04T11:35:46.603Z,8.50
2022-10-04T11:38:25.503Z,7.30
2022-10-04T11:41:04.049Z,7.70
2022-10-04T11:43:42.885Z,5.80
2022-10-04T11:46:22.423Z,6.70
2022-10-04T11:49:03.315Z,6.80
2022-10-04T11:51:45.525Z,6.60
2022-10-04T11:54:27.683Z,5.20
2022-10-04T11:57:11.928Z,7.10
2022-10-04T11:59:48.134Z,6.80
2022-10-04T12:02:35.719Z,6.70
2022-10-04T12:05:23.539Z,5.10
2022-10-04T12:08:03.111Z,5.10
2022-10-04T12:10:36.663Z,4.90
2022-10-04T12:13:30.234Z,7.10
2022-10-04T12:16:19.076Z,5.20
2022-10-04T12:19:00.276Z,7.40
2022-10-04T12:21:50.966Z,7.00
2022-10-04T12:24:28.120Z,4.70
2022-10-04T12:27:25.109Z,6.00
2022-10-04T12:30:08.910Z,9.50
2022-10-04T12:32:42.233Z,7.70
2022-10-04T12:35:24.760Z,7.40
2022-10-04T12:38:14.012Z,8.50
2022-10-04T12:40:48.754Z,7.50
2022-10-04T12:43:23.046Z,6.00
2022-10-04T12:45:58.304Z,11.30
2022-10-04T12:48:33.355Z,10.60
2022-10-04T12:51:09.238Z,8.00
2022-10-04T12:53:45.563Z,8.90
2022-10-04T12:56:23.275Z,9.70
2022-10-04T12:59:03.039Z,7.40
2022-10-04T13:01:37.865Z,7.30
2022-10-04T13:04:20.519Z,5.90
2022-10-04T13:06:56.024Z,10.50
2022-10-04T13:09:30.263Z,7.70
2022-10-04T13:12:04.764Z,6.70
2022-10-04T13:14:41.559Z,5.20
2022-10-04T13:17:30.644Z,4.80
2022-10-04T13:20:13.717Z,8.30
2022-10-04T13:22:56.927Z,7.10
2022-10-04T13:25:45.944Z,7.00
2022-10-04T13:28:23.232Z,7.40
2022-10-04T13:30:58.940Z,7.40
2022-10-04T13:33:31.916Z,7.90
2022-10-04T13:36:07.199Z,7.70
2022-10-04T13:38:50.944Z,6.00
2022-10-04T13:41:26.906Z,10.10
2022-10-04T13:44:18.000Z,7.60
2022-10-04T13:46:59.812Z,7.40
2022-10-04T13:49:38.548Z,6.40
2022-10-04T13:52:31.904Z,6.60
2022-10-04T13:55:31.002Z,9.00
2022-10-04T13:58:10.600Z,5.90
2022-10-04T14:00:50.714Z,9.50
2022-10-04T14:03:43.147Z,6.20
2022-10-04T14:06:27.367Z,6.90
2022-10-04T14:09:09.693Z,8.20
2022-10-04T14:11:55.079Z,7.10
2022-10-04T14:14:35.124Z,8.40
2022-10-04T14:17:22.973Z,7.70
2022-10-04T14:20:07.305Z,9.10
2022-10-04T14:23:00.775Z,5.30
2022-10-04T14:25:49.812Z,5.90
2022-10-04T14:28:38.672Z,6.20
2022-10-04T14:31:22.067Z,6.40
2022-10-04T14:34:06.481Z,10.90
2022-10-04T14:36:51.217Z,10.60
2022-10-04T14:39:40.985Z,7.50
2022-10-04T14:42:19.991Z,10.20
2022-10-04T14:45:05.643Z,8.50
2022-10-04T14:47:50.580Z,7.90
2022-10-04T14:50:26.190Z,9.80
2022-10-04T14:53:06.310Z,8.50
2022-10-04T14:55:50.813Z,5.50
2022-10-04T14:58:26.504Z,6.90
2022-10-04T15:01:07.653Z,5.70
2022-10-04T15:03:42.407Z,7.90
2022-10-04T15:06:23.883Z,6.60
2022-10-04T15:09:08.528Z,6.90
2022-10-04T15:11:41.615Z,8.00
2022-10-04T15:14:35.869Z,7.20
2022-10-04T15:17:08.697Z,7.40
2022-10-04T15:19:54.011Z,5.70
2022-10-04T15:22:27.784Z,8.80
2022-10-04T15:24:59.744Z,6.20
2022-10-04T15:27:51.828Z,5.80
2022-10-04T15:30:36.010Z,5.20
2022-10-04T15:33:18.322Z,7.30
2022-10-04T15:36:09.791Z,7.90
2022-10-04T15:38:45.835Z,7.60
2022-10-04T15:41:19.107Z,8.60
2022-10-04T15:44:12.256Z,7.80
2022-10-04T15:49:31.413Z,8.80
2022-10-04T15:52:10.774Z,6.00
2022-10-04T15:55:11.559Z,4.90
2022-10-04T15:57:54.379Z,10.00
2022-10-04T16:00:27.120Z,8.10
2022-10-04T16:03:00.290Z,8.20
2022-10-04T16:05:39.660Z,6.30
2022-10-04T16:08:42.112Z,7.70
2022-10-04T16:11:25.329Z,5.60
2022-10-04T16:14:16.136Z,10.90
2022-10-04T16:17:03.911Z,8.20
2022-10-04T16:19:49.853Z,5.20
2022-10-04T16:22:28.378Z,8.20
2022-10-04T16:25:00.638Z,7.00
2022-10-04T16:27:54.150Z,8.90
2022-10-04T16:30:29.269Z,11.20
2022-10-04T16:33:06.455Z,9.60
2022-10-04T16:35:39.392Z,7.10
2022-10-04T16:38:16.541Z,7.60
2022-10-04T16:41:09.568Z,7.70
2022-10-04T16:43:48.953Z,6.40
2022-10-04T16:46:27.203Z,8.40
2022-10-04T16:48:59.208Z,11.10
2022-10-04T16:51:39.249Z,8.40
2022-10-04T16:54:18.799Z,8.00
2022-10-04T16:57:06.901Z,15.00
2022-10-04T16:59:48.069Z,7.50
2022-10-04T17:02:32.426Z,5.20
2022-10-04T17:05:18.117Z,7.70
2022-10-04T17:07:59.431Z,7.30
2022-10-04T17:10:35.801Z,11.10
2022-10-04T17:13:16.249Z,10.40
2022-10-04T17:15:49.902Z,9.20
2022-10-04T17:18:26.383Z,9.20
2022-10-04T17:20:58.862Z,7.90
2022-10-04T17:23:46.079Z,8.40
2022-10-04T17:26:22.625Z,8.00
2022-10-04T17:28:57.696Z,9.70
2022-10-04T17:31:35.128Z,9.50
2022-10-04T17:34:10.768Z,10.00
2022-10-04T17:36:43.994Z,9.50
2022-10-04T17:39:22.696Z,9.20
2022-10-04T17:42:01.926Z,9.80
2022-10-04T17:44:40.175Z,11.00
2022-10-04T17:47:15.195Z,8.90
2022-10-04T17:50:10.237Z,10.60
2022-10-04T17:53:02.387Z,10.70
2022-10-04T17:55:44.250Z,10.80
2022-10-04T17:58:16.333Z,8.10
2022-10-04T18:00:57.031Z,11.10
2022-10-04T18:03:32.973Z,7.80
2022-10-04T18:06:12.524Z,14.70
2022-10-04T18:08:47.952Z,11.50
2022-10-04T18:11:22.281Z,7.00
2022-10-04T18:14:03.309Z,12.90
2022-10-04T18:16:43.623Z,8.30
2022-10-04T18:19:27.765Z,10.90
2022-10-04T18:22:06.597Z,11.30
2022-10-04T18:24:40.934Z,12.50
2022-10-04T18:27:22.849Z,8.50
2022-10-04T18:30:15.272Z,14.10
2022-10-04T18:32:52.790Z,9.60
2022-10-04T18:35:30.284Z,10.00
2022-10-04T18:38:21.401Z,9.50
2022-10-04T18:40:58.922Z,10.00
2022-10-04T18:43:32.914Z,9.40
2022-10-04T18:46:11.985Z,9.30
2022-10-04T18:49:03.937Z,8.90
2022-10-04T18:51:48.816Z,10.10
2022-10-04T18:57:17.101Z,10.00
2022-10-04T19:00:09.927Z,10.40
2022-10-04T19:02:45.316Z,14.10
2022-10-04T19:05:24.414Z,12.30
2022-10-04T19:08:07.919Z,11.20
2022-10-04T19:10:46.366Z,12.30
2022-10-04T19:13:33.950Z,10.80
2022-10-04T19:16:16.130Z,10.50
2022-10-04T19:18:54.515Z,10.20
2022-10-04T19:21:27.540Z,12.20
2022-10-04T19:24:13.281Z,14.40
2022-10-04T19:26:46.130Z,10.80
2022-10-04T19:29:22.991Z,10.00
2022-10-04T19:31:57.005Z,15.20
2022-10-04T19:34:33.967Z,12.10
2022-10-04T19:37:09.263Z,9.70
2022-10-04T19:39:43.720Z,11.30
2022-10-04T19:42:15.748Z,14.90
2022-10-04T19:45:03.305Z,15.70
2022-10-04T19:47:41.543Z,17.70
2022-10-04T19:50:18.846Z,14.70
2022-10-04T19:52:54.625Z,11.30
2022-10-04T19:55:29.980Z,15.10
2022-10-04T19:58:10.098Z,19.80
2022-10-04T20:00:41.198Z,16.00
2022-10-04T20:03:13.557Z,13.30
2022-10-04T20:05:52.689Z,15.20
2022-10-04T20:08:37.015Z,15.90
2022-10-04T20:11:16.128Z,15.70
2022-10-04T20:13:46.977Z,21.50
2022-10-04T20:16:38.570Z,18.80
2022-10-04T20:19:19.709Z,22.50
2022-10-04T20:21:51.312Z,24.80
2022-10-04T20:24:41.915Z,23.30
2022-10-04T20:27:37.979Z,26.10
2022-10-04T20:30:18.811Z,22.50
2022-10-04T20:32:56.475Z,21.00
2022-10-04T20:35:43.990Z,18.90
2022-10-04T20:38:32.281Z,21.00
2022-10-04T20:41:03.233Z,24.00
2022-10-04T20:43:54.679Z,20.60
2022-10-04T20:46:25.737Z,30.30
2022-10-04T20:48:56.882Z,26.50
2022-10-04T20:51:30.279Z,24.50
2022-10-04T20:54:01.925Z,29.10
2022-10-04T20:56:33.445Z,29.20
2022-10-04T20:59:05.727Z,20.00
2022-10-04T21:01:46.003Z,33.30
2022-10-04T21:04:18.771Z,20.80
2022-10-04T21:06:55.628Z,21.70
2022-10-04T21:09:27.585Z,20.70
2022-10-04T21:11:58.415Z,20.90
2022-10-04T21:14:30.008Z,17.10
2022-10-04T21:17:02.873Z,18.00
2022-10-04T21:19:54.069Z,23.80
2022-10-04T21:22:34.541Z,26.70
2022-10-04T21:25:07.553Z,20.70
2022-10-04T21:27:38.966Z,25.80
2022-10-04T21:30:15.231Z,26.90
2022-10-04T21:32:45.549Z,20.80
2022-10-04T21:35:17.206Z,21.10
2022-10-04T21:37:47.692Z,22.20
2022-10-04T21:40:18.742Z,20.80
2022-10-04T21:42:49.097Z,24.50
2022-10-04T21:45:19.945Z,25.00
2022-10-04T21:47:50.266Z,23.20
2022-10-04T21:50:21.705Z,24.50
2022-10-04T21:52:52.025Z,21.40
2022-10-04T21:55:22.871Z,24.10
2022-10-04T21:57:53.181Z,18.00
2022-10-04T22:00:24.604Z,24.20
2022-10-04T22:02:54.893Z,27.90
2022-10-04T22:05:25.658Z,20.50
2022-10-04T22:07:55.932Z,20.60
2022-10-04T22:10:26.783Z,19.80
2022-10-04T22:12:57.463Z,21.10
2022-10-04T22:15:29.312Z,25.20
2022-10-04T22:17:59.825Z,29.70
2022-10-04T22:20:30.840Z,26.00
2022-10-04T22:23:15.389Z,25.60
2022-10-04T22:25:46.615Z,28.70
2022-10-04T22:28:20.478Z,24.00
2022-10-04T22:30:52.468Z,21.90
2022-10-04T22:33:28.485Z,24.30
2022-10-04T22:36:00.636Z,22.40
2022-10-04T22:38:31.548Z,22.40
2022-10-04T22:41:02.951Z,21.00
2022-10-04T22:43:33.336Z,22.80
2022-10-04T22:46:04.425Z,24.80
2022-10-04T22:48:35.097Z,22.20
2022-10-04T22:51:06.254Z,21.80
2022-10-04T22:53:36.958Z,22.00
2022-10-04T22:56:08.346Z,24.30
2022-10-04T22:58:38.906Z,23.00
2022-10-04T23:01:14.211Z,24.10
2022-10-04T23:03:46.262Z,24.80
2022-10-04T23:06:17.487Z,25.30
2022-10-04T23:08:47.957Z,24.60
2022-10-04T23:11:18.650Z,22.80
2022-10-04T23:13:48.969Z,28.60
2022-10-04T23:16:21.050Z,27.10
2022-10-04T23:18:51.847Z,20.90
2022-10-04T23:21:24.047Z,23.10
2022-10-04T23:23:54.777Z,20.20
2022-10-04T23:26:28.356Z,18.70
2022-10-04T23:31:28.309Z,22.10
2022-10-04T23:33:59.258Z,24.30
2022-10-04T23:36:29.989Z,19.60
2022-10-04T23:39:02.711Z,20.90
2022-10-04T23:41:33.137Z,23.10
2022-10-04T23:44:04.349Z,20.10
2022-10-04T23:46:35.054Z,22.60
2022-10-04T23:49:06.133Z,25.90
2022-10-04T23:51:37.037Z,36.50
2022-10-04T23:54:11.767Z,30.90
2022-10-04T23:56:43.222Z,33.70
2022-10-04T23:59:17.345Z,38.20
